createdAt,value
2018-02-21T00:00:36.488Z,100.0
2018-02-21T00:01:38.140Z,100.0
2018-02-21T00:02:39.796Z,100.0
2018-02-21T00:03:41.451Z,100.0
2018-02-21T00:04:43.095Z,100.0
2018-02-21T00:05:44.740Z,100.0
2018-02-21T00:06:46.414Z,100.0
2018-02-21T00:07:48.059Z,100.0
2018-02-21T00:08:49.714Z,100.0
2018-02-21T00:09:51.360Z,100.0
2018-02-21T00:10:53.012Z,100.0
2018-02-21T00:11:54.657Z,100.0
2018-02-21T00:12:56.301Z,100.0
2018-02-21T00:13:57.991Z,100.0
2018-02-21T00:14:59.632Z,100.0
2018-02-21T00:16:01.284Z,100.0
2018-02-21T00:17:02.917Z,100.0
2018-02-21T00:18:04.565Z,100.0
2018-02-21T00:19:06.217Z,100.0
2018-02-21T00:20:07.861Z,100.0
2018-02-21T00:21:09.509Z,100.0
2018-02-21T00:22:11.160Z,100.0
2018-02-21T00:23:12.809Z,100.0
2018-02-21T00:24:14.472Z,100.0
2018-02-21T00:25:16.108Z,100.0
2018-02-21T00:26:17.755Z,100.0
2018-02-21T00:27:19.408Z,100.0
2018-02-21T00:28:21.060Z,100.0
2018-02-21T00:29:22.700Z,100.0
2018-02-21T00:30:24.340Z,100.0
2018-02-21T00:31:25.990Z,100.0
2018-02-21T00:32:27.637Z,100.0
2018-02-21T00:33:29.277Z,100.0
2018-02-21T00:34:30.927Z,100.0
2018-02-21T00:35:32.586Z,100.0
2018-02-21T00:36:34.237Z,100.0
2018-02-21T00:37:35.882Z,100.0
2018-02-21T00:38:37.533Z,100.0
2018-02-21T00:39:39.182Z,100.0
2018-02-21T00:40:40.830Z,100.0
2018-02-21T00:41:42.474Z,100.0
2018-02-21T00:42:44.112Z,100.0
2018-02-21T00:43:45.779Z,100.0
2018-02-21T00:44:47.423Z,100.0
2018-02-21T00:45:49.069Z,100.0
2018-02-21T00:46:50.708Z,100.0
2018-02-21T00:47:52.353Z,100.0
2018-02-21T00:48:54.006Z,100.0
2018-02-21T00:49:55.656Z,100.0
2018-02-21T00:50:57.307Z,100.0
2018-02-21T00:51:58.987Z,100.0
2018-02-21T00:53:00.615Z,100.0
2018-02-21T00:54:02.257Z,100.0
2018-02-21T00:55:03.901Z,100.0
2018-02-21T00:56:05.541Z,100.0
2018-02-21T00:57:07.194Z,100.0
2018-02-21T00:58:08.845Z,100.0
2018-02-21T00:59:10.505Z,100.0
2018-02-21T01:00:12.146Z,100.0
2018-02-21T01:01:13.793Z,100.0
2018-02-21T01:02:15.436Z,100.0
2018-02-21T01:03:17.076Z,100.0
2018-02-21T01:04:18.733Z,100.0
2018-02-21T01:05:20.388Z,100.0
2018-02-21T01:06:22.034Z,100.0
2018-02-21T01:07:23.766Z,100.0
2018-02-21T01:08:25.417Z,100.0
2018-02-21T01:09:27.119Z,100.0
2018-02-21T01:10:28.772Z,100.0
2018-02-21T01:11:30.418Z,100.0
2018-02-21T01:12:32.066Z,100.0
2018-02-21T01:13:33.721Z,100.0
2018-02-21T01:14:35.365Z,100.0
2018-02-21T01:15:37.016Z,100.0
2018-02-21T01:16:38.668Z,100.0
2018-02-21T01:17:40.316Z,100.0
2018-02-21T01:18:41.972Z,100.0
2018-02-21T01:19:43.655Z,100.0
2018-02-21T01:20:45.309Z,100.0
2018-02-21T01:21:46.959Z,100.0
2018-02-21T01:22:48.619Z,100.0
2018-02-21T01:23:50.322Z,100.0
2018-02-21T01:24:51.988Z,100.0
2018-02-21T01:25:53.649Z,100.0
2018-02-21T01:26:55.308Z,100.0
2018-02-21T01:27:56.975Z,100.0
2018-02-21T01:28:58.629Z,100.0
2018-02-21T01:30:00.284Z,100.0
2018-02-21T01:31:01.944Z,100.0
2018-02-21T01:32:03.604Z,100.0
2018-02-21T01:33:05.251Z,100.0
2018-02-21T01:34:06.905Z,100.0
2018-02-21T01:35:08.553Z,100.0
2018-02-21T01:36:10.200Z,100.0
2018-02-21T01:37:11.850Z,100.0
2018-02-21T01:38:13.507Z,100.0
2018-02-21T01:39:15.158Z,100.0
2018-02-21T01:40:16.805Z,100.0
2018-02-21T01:41:18.459Z,100.0
2018-02-21T01:42:20.113Z,100.0
2018-02-21T01:43:21.774Z,100.0
2018-02-21T01:44:23.424Z,100.0
2018-02-21T01:45:25.087Z,100.0
2018-02-21T01:46:26.734Z,100.0
2018-02-21T01:47:28.390Z,100.0
2018-02-21T01:48:30.044Z,100.0
2018-02-21T01:49:31.685Z,100.0
2018-02-21T01:50:33.341Z,100.0
2018-02-21T01:51:34.988Z,100.0
2018-02-21T01:52:36.641Z,100.0
2018-02-21T01:53:38.293Z,100.0
2018-02-21T01:54:39.939Z,100.0
2018-02-21T01:55:41.590Z,100.0
2018-02-21T01:56:43.248Z,100.0
2018-02-21T01:57:44.894Z,100.0
2018-02-21T01:58:46.546Z,100.0
2018-02-21T01:59:48.196Z,100.0
2018-02-21T02:00:49.849Z,100.0
2018-02-21T02:01:51.502Z,100.0
2018-02-21T02:02:53.153Z,100.0
2018-02-21T02:03:54.812Z,100.0
2018-02-21T02:04:56.471Z,100.0
2018-02-21T02:05:58.118Z,100.0
2018-02-21T02:06:59.800Z,100.0
2018-02-21T02:08:01.447Z,100.0
2018-02-21T02:09:03.099Z,100.0
2018-02-21T02:10:04.748Z,100.0
2018-02-21T02:11:06.389Z,100.0
2018-02-21T02:12:08.051Z,100.0
2018-02-21T02:13:09.700Z,100.0
2018-02-21T02:14:11.360Z,100.0
2018-02-21T02:15:13.013Z,100.0
2018-02-21T02:16:14.664Z,100.0
2018-02-21T02:17:16.315Z,100.0
2018-02-21T02:18:17.958Z,100.0
2018-02-21T02:19:19.606Z,100.0
2018-02-21T02:20:21.255Z,100.0
2018-02-21T02:21:22.898Z,100.0
2018-02-21T02:22:24.546Z,100.0
2018-02-21T02:23:26.199Z,100.0
2018-02-21T02:24:27.904Z,100.0
2018-02-21T02:25:29.552Z,100.0
2018-02-21T02:26:31.207Z,100.0
2018-02-21T02:27:32.854Z,100.0
2018-02-21T02:28:34.517Z,100.0
2018-02-21T02:29:36.169Z,100.0
2018-02-21T02:30:37.823Z,100.0
2018-02-21T02:31:39.478Z,100.0
2018-02-21T02:32:41.117Z,100.0
2018-02-21T02:33:42.771Z,100.0
2018-02-21T02:34:44.415Z,100.0
2018-02-21T02:35:46.054Z,100.0
2018-02-21T02:36:47.703Z,100.0
2018-02-21T02:37:49.362Z,100.0
2018-02-21T02:38:51.009Z,100.0
2018-02-21T02:39:52.646Z,100.0
2018-02-21T02:40:54.279Z,100.0
2018-02-21T02:41:55.931Z,100.0
2018-02-21T02:42:57.572Z,100.0
2018-02-21T02:43:59.223Z,100.0
2018-02-21T02:45:00.884Z,100.0
2018-02-21T02:46:02.522Z,100.0
2018-02-21T02:47:04.179Z,100.0
2018-02-21T02:48:05.830Z,100.0
2018-02-21T02:49:07.463Z,100.0
2018-02-21T02:50:09.116Z,100.0
2018-02-21T02:51:10.760Z,100.0
2018-02-21T02:52:12.399Z,100.0
2018-02-21T02:53:14.055Z,100.0
2018-02-21T02:54:15.701Z,100.0
2018-02-21T02:55:17.347Z,100.0
2018-02-21T03:01:06.288Z,100.0
2018-02-21T03:02:07.925Z,100.0
2018-02-21T03:03:59.860Z,100.0
2018-02-21T03:05:01.513Z,100.0
2018-02-21T03:06:53.424Z,100.0
2018-02-21T03:07:55.076Z,100.0
2018-02-21T03:09:47.014Z,100.0
2018-02-21T03:10:48.666Z,100.0
2018-02-21T03:12:40.567Z,100.0
2018-02-21T03:13:42.218Z,100.0
2018-02-21T03:15:34.133Z,100.0
2018-02-21T03:16:35.788Z,100.0
2018-02-21T03:18:27.710Z,100.0
2018-02-21T03:19:29.353Z,100.0
2018-02-21T03:21:21.384Z,100.0
2018-02-21T03:22:23.038Z,100.0
2018-02-21T03:24:14.958Z,100.0
2018-02-21T03:25:16.605Z,100.0
2018-02-21T03:27:08.516Z,100.0
2018-02-21T03:28:10.167Z,100.0
2018-02-21T03:29:11.819Z,100.0
2018-02-21T03:30:13.471Z,100.0
2018-02-21T03:31:15.121Z,100.0
2018-02-21T03:32:16.773Z,100.0
2018-02-21T03:33:18.428Z,100.0
2018-02-21T03:34:20.065Z,100.0
2018-02-21T03:35:21.716Z,100.0
2018-02-21T03:36:23.368Z,100.0
2018-02-21T03:37:25.022Z,100.0
2018-02-21T03:38:26.670Z,100.0
2018-02-21T03:39:28.315Z,100.0
2018-02-21T03:40:29.967Z,100.0
2018-02-21T03:41:31.626Z,100.0
2018-02-21T03:42:33.283Z,100.0
2018-02-21T03:43:34.934Z,100.0
2018-02-21T03:44:36.579Z,100.0
2018-02-21T03:45:38.228Z,100.0
2018-02-21T03:46:39.876Z,100.0
2018-02-21T03:47:41.529Z,100.0
2018-02-21T03:48:43.176Z,100.0
2018-02-21T03:49:44.823Z,100.0
2018-02-21T03:50:46.474Z,100.0
2018-02-21T03:51:48.113Z,100.0
2018-02-21T03:52:49.763Z,100.0
2018-02-21T03:53:51.415Z,100.0
2018-02-21T03:54:53.054Z,100.0
2018-02-21T03:55:54.718Z,100.0
2018-02-21T03:56:56.359Z,100.0
2018-02-21T03:57:58.009Z,100.0
2018-02-21T03:58:59.657Z,100.0
2018-02-21T04:00:01.300Z,100.0
2018-02-21T04:01:02.963Z,100.0
2018-02-21T04:02:04.606Z,100.0
2018-02-21T04:03:06.263Z,100.0
2018-02-21T04:04:07.914Z,100.0
2018-02-21T04:05:09.556Z,100.0
2018-02-21T04:06:11.209Z,100.0
2018-02-21T04:07:12.859Z,100.0
2018-02-21T04:08:14.507Z,100.0
2018-02-21T04:09:16.196Z,100.0
2018-02-21T04:10:17.847Z,100.0
2018-02-21T04:11:19.500Z,100.0
2018-02-21T04:12:21.136Z,99.5
2018-02-21T04:13:22.795Z,99.7
2018-02-21T04:14:24.435Z,99.7
2018-02-21T04:15:26.090Z,99.4
2018-02-21T04:16:27.747Z,99.5
2018-02-21T04:17:29.398Z,99.3
2018-02-21T04:18:31.048Z,100.0
2018-02-21T04:19:32.700Z,99.6
2018-02-21T04:20:34.343Z,99.7
2018-02-21T04:21:36.002Z,100.0
2018-02-21T04:22:37.647Z,100.0
2018-02-21T04:23:39.299Z,99.4
2018-02-21T04:24:40.946Z,99.2
2018-02-21T04:25:42.599Z,98.2
2018-02-21T04:26:44.241Z,98.2
2018-02-21T04:27:45.888Z,97.7
2018-02-21T04:28:47.540Z,97.4
2018-02-21T04:29:49.197Z,97.3
2018-02-21T04:30:50.838Z,96.3
2018-02-21T04:31:52.488Z,96.3
2018-02-21T04:32:54.134Z,95.6
2018-02-21T04:33:55.780Z,95.3
2018-02-21T04:34:57.428Z,95.7
2018-02-21T04:35:59.068Z,95.9
2018-02-21T04:37:00.716Z,95.3
2018-02-21T04:38:02.354Z,95.3
2018-02-21T04:39:04.008Z,95.3
2018-02-21T04:40:05.660Z,95.3
2018-02-21T04:41:07.307Z,95.5
2018-02-21T04:42:08.958Z,95.3
2018-02-21T04:43:10.606Z,94.8
2018-02-21T04:44:12.261Z,95.5
2018-02-21T04:45:13.930Z,95.1
2018-02-21T04:46:15.576Z,94.5
2018-02-21T04:47:17.222Z,94.5
2018-02-21T04:48:18.877Z,94.6
2018-02-21T04:49:20.563Z,94.9
2018-02-21T04:50:22.167Z,94.7
2018-02-21T04:51:23.822Z,96.2
2018-02-21T04:52:25.560Z,96.8
2018-02-21T04:53:27.214Z,97.4
2018-02-21T04:54:28.854Z,98.4
2018-02-21T04:55:30.498Z,98.2
2018-02-21T04:56:32.143Z,97.9
2018-02-21T04:57:33.798Z,98.2
2018-02-21T04:58:35.454Z,96.5
2018-02-21T04:59:37.102Z,95.8
2018-02-21T05:00:38.792Z,95.8
2018-02-21T05:01:40.402Z,94.6
2018-02-21T05:02:42.046Z,94.9
2018-02-21T05:03:43.682Z,95.4
2018-02-21T05:04:45.339Z,95.4
2018-02-21T05:05:46.982Z,95.4
2018-02-21T05:06:48.619Z,95.3
2018-02-21T05:07:50.276Z,96.0
2018-02-21T05:08:51.929Z,95.3
2018-02-21T05:09:53.563Z,94.8
2018-02-21T05:10:55.215Z,94.7
2018-02-21T05:11:56.870Z,95.3
2018-02-21T05:12:58.511Z,95.2
2018-02-21T05:14:00.169Z,95.6
2018-02-21T05:15:01.839Z,94.5
2018-02-21T05:16:03.503Z,94.3
2018-02-21T05:17:05.151Z,94.1
2018-02-21T05:18:06.803Z,93.9
2018-02-21T05:19:08.469Z,94.4
2018-02-21T05:20:10.132Z,94.2
2018-02-21T05:21:11.797Z,94.1
2018-02-21T05:22:13.439Z,93.8
2018-02-21T05:23:15.088Z,94.1
2018-02-21T05:24:16.735Z,94.1
2018-02-21T05:25:18.384Z,93.5
2018-02-21T05:26:20.051Z,93.7
2018-02-21T05:27:21.702Z,93.4
2018-02-21T05:28:23.354Z,92.8
2018-02-21T05:29:25.001Z,92.8
2018-02-21T05:30:26.648Z,92.8
2018-02-21T05:31:28.292Z,92.5
2018-02-21T05:32:29.935Z,92.5
2018-02-21T05:33:31.585Z,93.2
2018-02-21T05:34:33.238Z,93.0
2018-02-21T05:35:34.890Z,94.1
2018-02-21T05:36:36.565Z,93.8
2018-02-21T05:37:38.193Z,93.5
2018-02-21T05:38:39.847Z,93.5
2018-02-21T05:39:41.489Z,93.5
2018-02-21T05:40:43.138Z,93.8
2018-02-21T05:41:44.787Z,94.1
2018-02-21T05:42:46.445Z,94.0
2018-02-21T05:43:48.137Z,93.3
2018-02-21T05:44:49.781Z,92.9
2018-02-21T05:45:51.429Z,93.4
2018-02-21T05:46:53.066Z,93.4
2018-02-21T05:47:54.717Z,93.9
2018-02-21T05:48:56.367Z,94.2
2018-02-21T05:49:58.030Z,93.9
2018-02-21T05:50:59.676Z,93.7
2018-02-21T05:52:01.325Z,94.5
2018-02-21T05:53:02.978Z,94.1
2018-02-21T05:54:04.615Z,93.9
2018-02-21T05:55:06.318Z,93.7
2018-02-21T05:56:07.976Z,93.7
2018-02-21T05:57:09.626Z,93.2
2018-02-21T05:58:11.277Z,93.4
2018-02-21T05:59:12.940Z,93.1
2018-02-21T06:00:14.576Z,92.6
2018-02-21T06:01:16.230Z,91.7
2018-02-21T06:02:17.877Z,91.4
2018-02-21T06:03:19.523Z,92.7
2018-02-21T06:04:21.169Z,93.2
2018-02-21T06:05:22.828Z,93.1
2018-02-21T06:06:24.468Z,93.8
2018-02-21T06:07:26.123Z,93.4
2018-02-21T06:08:27.778Z,94.1
2018-02-21T06:09:29.429Z,94.1
2018-02-21T06:10:31.075Z,93.5
2018-02-21T06:11:32.768Z,93.2
2018-02-21T06:12:34.426Z,93.4
2018-02-21T06:13:36.072Z,93.2
2018-02-21T06:14:37.718Z,93.4
2018-02-21T06:15:39.404Z,93.6
2018-02-21T06:16:41.049Z,94.2
2018-02-21T06:17:42.696Z,94.0
2018-02-21T06:18:44.349Z,93.0
2018-02-21T06:19:46.002Z,93.2
2018-02-21T06:20:47.660Z,93.6
2018-02-21T06:21:49.308Z,93.6
2018-02-21T06:22:50.962Z,93.4
2018-02-21T06:23:52.671Z,91.7
2018-02-21T06:24:54.321Z,91.7
2018-02-21T06:25:55.967Z,91.9
2018-02-21T06:26:57.622Z,92.3
2018-02-21T06:27:59.279Z,92.8
2018-02-21T06:29:01.027Z,92.3
2018-02-21T06:30:02.680Z,92.7
2018-02-21T06:31:04.331Z,92.7
2018-02-21T06:32:05.983Z,93.0
2018-02-21T06:33:07.630Z,93.2
2018-02-21T06:34:09.282Z,93.3
2018-02-21T06:35:10.993Z,93.2
2018-02-21T06:36:14.643Z,93.1
2018-02-21T06:37:16.311Z,93.0
2018-02-21T06:38:17.959Z,93.2
2018-02-21T06:39:19.646Z,93.1
2018-02-21T06:40:21.295Z,93.2
2018-02-21T06:41:22.950Z,94.1
2018-02-21T06:42:24.597Z,93.4
2018-02-21T06:43:26.280Z,93.6
2018-02-21T06:44:27.919Z,93.9
2018-02-21T06:45:29.571Z,93.5
2018-02-21T06:46:31.222Z,94.1
2018-02-21T06:47:32.890Z,94.0
2018-02-21T06:48:34.552Z,93.6
2018-02-21T06:49:36.194Z,93.0
2018-02-21T06:50:37.841Z,93.2
2018-02-21T06:51:39.484Z,93.2
2018-02-21T06:52:41.139Z,92.6
2018-02-21T06:53:42.799Z,92.6
2018-02-21T06:54:44.454Z,92.4
2018-02-21T06:55:46.105Z,92.1
2018-02-21T07:01:56.493Z,93.9
2018-02-21T07:02:58.139Z,94.4
2018-02-21T07:03:59.784Z,93.8
2018-02-21T07:05:01.429Z,93.6
2018-02-21T07:06:03.079Z,93.1
2018-02-21T07:07:04.744Z,91.6
2018-02-21T07:08:06.396Z,91.4
2018-02-21T07:09:08.049Z,90.5
2018-02-21T07:10:09.711Z,90.3
2018-02-21T07:11:11.341Z,90.9
2018-02-21T07:12:12.983Z,91.5
2018-02-21T07:13:14.646Z,93.3
2018-02-21T07:14:16.305Z,94.5
2018-02-21T07:15:17.973Z,96.0
2018-02-21T07:16:19.690Z,96.5
2018-02-21T07:17:21.350Z,96.7
2018-02-21T07:18:22.994Z,98.1
2018-02-21T07:19:24.652Z,97.9
2018-02-21T07:20:26.318Z,99.6
2018-02-21T07:21:27.971Z,100.0
2018-02-21T07:22:29.625Z,100.0
2018-02-21T07:23:31.288Z,100.0
2018-02-21T07:24:32.938Z,100.0
2018-02-21T07:25:34.580Z,100.0
2018-02-21T07:26:36.233Z,100.0
2018-02-21T07:27:37.884Z,100.0
2018-02-21T07:28:39.533Z,100.0
2018-02-21T07:29:41.189Z,100.0
2018-02-21T07:30:42.870Z,100.0
2018-02-21T07:31:44.524Z,100.0
2018-02-21T07:32:46.178Z,100.0
2018-02-21T07:33:47.834Z,100.0
2018-02-21T07:34:49.490Z,100.0
2018-02-21T07:35:51.137Z,100.0
2018-02-21T07:36:52.809Z,100.0
2018-02-21T07:37:54.458Z,100.0
2018-02-21T07:38:56.112Z,100.0
2018-02-21T07:39:57.759Z,100.0
2018-02-21T07:40:59.422Z,100.0
2018-02-21T07:42:01.142Z,100.0
2018-02-21T07:43:02.796Z,100.0
2018-02-21T07:44:04.448Z,100.0
2018-02-21T07:45:06.111Z,100.0
2018-02-21T07:46:07.765Z,100.0
2018-02-21T07:47:09.423Z,100.0
2018-02-21T07:48:11.082Z,100.0
2018-02-21T07:49:12.740Z,100.0
2018-02-21T07:50:14.388Z,100.0
2018-02-21T07:51:16.109Z,100.0
2018-02-21T07:52:17.784Z,100.0
2018-02-21T07:53:19.437Z,100.0
2018-02-21T07:54:21.104Z,100.0
2018-02-21T07:55:22.798Z,100.0
2018-02-21T07:56:24.464Z,100.0
2018-02-21T07:57:26.123Z,100.0
2018-02-21T07:58:27.776Z,100.0
2018-02-21T07:59:29.443Z,100.0
2018-02-21T08:00:31.106Z,100.0
2018-02-21T08:01:32.760Z,100.0
2018-02-21T08:02:34.418Z,100.0
2018-02-21T08:03:36.076Z,100.0
2018-02-21T08:04:37.963Z,100.0
2018-02-21T08:05:39.627Z,100.0
2018-02-21T08:06:41.290Z,100.0
2018-02-21T08:07:42.945Z,100.0
2018-02-21T08:08:44.617Z,100.0
2018-02-21T08:09:46.337Z,100.0
2018-02-21T08:10:48.212Z,100.0
2018-02-21T08:11:49.910Z,100.0
2018-02-21T08:12:51.559Z,100.0
2018-02-21T08:13:53.213Z,100.0
2018-02-21T08:14:54.866Z,100.0
2018-02-21T08:15:56.532Z,100.0
2018-02-21T08:16:58.235Z,100.0
2018-02-21T08:17:59.920Z,100.0
2018-02-21T08:19:01.571Z,100.0
2018-02-21T08:20:03.234Z,100.0
2018-02-21T08:21:04.902Z,100.0
2018-02-21T08:22:06.550Z,100.0
2018-02-21T08:23:08.221Z,100.0
2018-02-21T08:24:09.871Z,100.0
2018-02-21T08:25:11.530Z,100.0
2018-02-21T08:26:13.206Z,100.0
2018-02-21T08:27:14.863Z,100.0
2018-02-21T08:28:16.582Z,100.0
2018-02-21T08:29:18.185Z,100.0
2018-02-21T08:30:19.843Z,100.0
2018-02-21T08:31:21.501Z,100.0
2018-02-21T08:32:23.161Z,100.0
2018-02-21T08:33:24.825Z,100.0
2018-02-21T08:34:26.488Z,100.0
2018-02-21T08:35:28.155Z,100.0
2018-02-21T08:36:29.828Z,100.0
2018-02-21T08:37:31.479Z,100.0
2018-02-21T08:38:33.135Z,98.5
2018-02-21T08:39:34.796Z,97.6
2018-02-21T08:40:36.474Z,98.5
2018-02-21T08:41:38.111Z,96.6
2018-02-21T08:42:39.783Z,95.3
2018-02-21T08:43:41.433Z,93.7
2018-02-21T08:44:43.130Z,94.4
2018-02-21T08:45:44.784Z,93.0
2018-02-21T08:46:46.443Z,93.7
2018-02-21T08:47:48.108Z,92.0
2018-02-21T08:48:49.772Z,92.5
2018-02-21T08:49:51.441Z,91.9
2018-02-21T08:50:53.097Z,91.5
2018-02-21T08:51:54.800Z,92.6
2018-02-21T08:52:56.424Z,93.3
2018-02-21T08:53:58.088Z,92.5
2018-02-21T08:54:59.755Z,89.7
2018-02-21T08:56:01.418Z,88.3
2018-02-21T08:57:03.089Z,87.6
2018-02-21T08:58:04.751Z,84.6
2018-02-21T08:59:06.420Z,85.4
2018-02-21T09:00:08.100Z,84.2
2018-02-21T09:01:09.785Z,84.1
2018-02-21T09:02:11.446Z,84.1
2018-02-21T09:03:13.122Z,82.5
2018-02-21T09:04:14.785Z,81.6
2018-02-21T09:05:16.445Z,82.4
2018-02-21T09:06:18.106Z,82.2
2018-02-21T09:07:19.775Z,81.7
2018-02-21T09:08:21.418Z,79.7
2018-02-21T09:09:23.080Z,80.4
2018-02-21T09:10:24.746Z,80.9
2018-02-21T09:11:26.423Z,80.9
2018-02-21T09:12:28.083Z,85.0
2018-02-21T09:13:29.741Z,84.8
2018-02-21T09:14:31.466Z,82.5
2018-02-21T09:15:33.132Z,84.3
2018-02-21T09:16:34.846Z,85.2
2018-02-21T09:17:36.460Z,84.9
2018-02-21T09:18:38.135Z,84.1
2018-02-21T09:19:39.787Z,85.4
2018-02-21T09:20:41.446Z,86.6
2018-02-21T09:21:43.106Z,86.2
2018-02-21T09:22:44.772Z,86.1
2018-02-21T09:23:46.428Z,87.0
2018-02-21T09:24:48.096Z,85.2
2018-02-21T09:25:49.761Z,83.5
2018-02-21T09:26:51.427Z,82.6
2018-02-21T09:27:53.139Z,82.1
2018-02-21T09:28:54.798Z,81.9
2018-02-21T09:29:56.466Z,81.3
2018-02-21T09:30:58.128Z,81.2
2018-02-21T09:31:59.791Z,80.6
2018-02-21T09:33:01.457Z,80.8
2018-02-21T09:34:03.126Z,80.8
2018-02-21T09:35:04.778Z,79.6
2018-02-21T09:36:06.439Z,81.6
2018-02-21T09:37:08.104Z,81.8
2018-02-21T09:38:09.768Z,83.1
2018-02-21T09:39:11.500Z,80.9
2018-02-21T09:40:13.177Z,78.2
2018-02-21T09:41:14.843Z,78.8
2018-02-21T09:42:16.509Z,79.5
2018-02-21T09:43:18.172Z,80.1
2018-02-21T09:44:19.853Z,80.2
2018-02-21T09:45:21.528Z,81.6
2018-02-21T09:46:23.195Z,81.8
2018-02-21T09:47:24.856Z,81.2
2018-02-21T09:48:26.515Z,81.2
2018-02-21T09:49:28.184Z,80.1
2018-02-21T09:50:29.847Z,81.9
2018-02-21T09:51:31.496Z,82.5
2018-02-21T09:52:33.161Z,81.5
2018-02-21T09:53:34.819Z,81.4
2018-02-21T09:54:36.484Z,83.3
2018-02-21T09:55:38.138Z,83.8
2018-02-21T09:56:39.812Z,82.6
2018-02-21T09:57:41.468Z,81.6
2018-02-21T09:58:43.128Z,82.2
2018-02-21T09:59:44.783Z,82.1
2018-02-21T10:00:46.448Z,81.6
2018-02-21T10:01:48.112Z,78.6
2018-02-21T10:02:49.768Z,78.4
2018-02-21T10:03:51.424Z,79.2
2018-02-21T10:04:53.090Z,79.2
2018-02-21T10:05:54.757Z,77.1
2018-02-21T10:06:56.428Z,76.2
2018-02-21T10:07:58.091Z,74.8
2018-02-21T10:08:59.748Z,77.5
2018-02-21T10:10:01.420Z,76.8
2018-02-21T10:11:03.087Z,76.8
2018-02-21T10:12:04.781Z,77.3
2018-02-21T10:13:06.496Z,75.5
2018-02-21T10:14:08.152Z,75.7
2018-02-21T10:15:09.838Z,73.8
2018-02-21T10:16:11.483Z,75.1
2018-02-21T10:17:13.169Z,74.1
2018-02-21T10:18:14.843Z,75.9
2018-02-21T10:19:16.518Z,78.3
2018-02-21T10:20:18.190Z,79.6
2018-02-21T10:21:19.857Z,78.8
2018-02-21T10:22:21.521Z,77.6
2018-02-21T10:23:23.203Z,77.6
2018-02-21T10:24:24.864Z,76.8
2018-02-21T10:25:26.636Z,77.1
2018-02-21T10:26:28.402Z,78.8
2018-02-21T10:27:30.077Z,77.5
2018-02-21T10:28:31.737Z,77.1
2018-02-21T10:29:33.396Z,75.9
2018-02-21T10:30:35.073Z,77.5
2018-02-21T10:31:36.824Z,78.6
2018-02-21T10:32:38.476Z,79.9
2018-02-21T10:33:40.138Z,77.2
2018-02-21T10:34:41.848Z,76.1
2018-02-21T10:35:43.513Z,76.2
2018-02-21T10:36:45.172Z,74.0
2018-02-21T10:37:46.838Z,75.0
2018-02-21T10:38:48.508Z,76.8
2018-02-21T10:39:50.158Z,76.9
2018-02-21T10:40:51.827Z,77.3
2018-02-21T10:41:53.480Z,76.4
2018-02-21T10:42:55.147Z,78.8
2018-02-21T10:43:56.813Z,79.3
2018-02-21T10:44:58.487Z,79.0
2018-02-21T10:46:00.173Z,79.9
2018-02-21T10:47:01.832Z,80.0
2018-02-21T10:48:03.532Z,78.1
2018-02-21T10:49:05.186Z,77.3
2018-02-21T10:50:06.846Z,78.2
2018-02-21T10:51:08.509Z,78.1
2018-02-21T10:52:10.187Z,78.1
2018-02-21T10:53:11.847Z,77.7
2018-02-21T10:54:13.513Z,77.3
2018-02-21T10:55:15.172Z,78.0
2018-02-21T11:01:34.279Z,78.5
2018-02-21T11:02:35.932Z,75.4
2018-02-21T11:03:37.594Z,75.0
2018-02-21T11:04:39.253Z,76.2
2018-02-21T11:05:40.924Z,77.1
2018-02-21T11:06:42.607Z,74.6
2018-02-21T11:07:44.269Z,75.6
2018-02-21T11:08:45.934Z,76.1
2018-02-21T11:09:47.593Z,76.6
2018-02-21T11:10:49.255Z,76.6
2018-02-21T11:11:50.917Z,77.3
2018-02-21T11:12:52.575Z,77.1
2018-02-21T11:13:54.236Z,76.9
2018-02-21T11:14:55.894Z,76.1
2018-02-21T11:15:57.564Z,75.2
2018-02-21T11:16:59.228Z,73.7
2018-02-21T11:18:00.903Z,73.3
2018-02-21T11:19:02.529Z,73.5
2018-02-21T11:20:04.190Z,72.4
2018-02-21T11:21:05.850Z,72.3
2018-02-21T11:22:07.513Z,72.8
2018-02-21T11:23:09.182Z,74.1
2018-02-21T11:24:10.840Z,73.0
2018-02-21T11:25:12.501Z,72.0
2018-02-21T11:26:14.168Z,72.9
2018-02-21T11:27:15.830Z,74.0
2018-02-21T11:28:17.495Z,75.0
2018-02-21T11:29:19.160Z,72.6
2018-02-21T11:30:20.826Z,71.7
2018-02-21T11:31:22.498Z,71.6
2018-02-21T11:32:24.164Z,69.9
2018-02-21T11:33:25.824Z,70.1
2018-02-21T11:34:27.493Z,71.5
2018-02-21T11:35:29.158Z,73.6
2018-02-21T11:36:30.824Z,75.5
2018-02-21T11:37:32.488Z,73.8
2018-02-21T11:38:34.150Z,72.6
2018-02-21T11:39:35.816Z,73.0
2018-02-21T11:40:37.472Z,71.8
2018-02-21T11:41:39.134Z,69.5
2018-02-21T11:42:40.804Z,68.8
2018-02-21T11:43:42.468Z,67.9
2018-02-21T11:44:44.161Z,67.9
2018-02-21T11:45:45.814Z,68.1
2018-02-21T11:46:47.475Z,68.1
2018-02-21T11:47:49.157Z,68.3
2018-02-21T11:48:50.812Z,69.6
2018-02-21T11:49:52.477Z,70.3
2018-02-21T11:50:54.152Z,70.0
2018-02-21T11:51:55.808Z,71.2
2018-02-21T11:52:57.469Z,70.7
2018-02-21T11:53:59.131Z,68.9
2018-02-21T11:55:00.789Z,68.3
2018-02-21T11:56:02.445Z,67.7
2018-02-21T11:57:04.114Z,66.4
2018-02-21T11:58:05.791Z,66.2
2018-02-21T11:59:07.443Z,66.9
2018-02-21T12:00:09.106Z,65.7
2018-02-21T12:01:10.775Z,66.0
2018-02-21T12:02:12.431Z,67.6
2018-02-21T12:03:14.109Z,65.7
2018-02-21T12:04:15.800Z,66.9
2018-02-21T12:05:17.470Z,65.6
2018-02-21T12:06:19.137Z,65.2
2018-02-21T12:07:20.805Z,65.2
2018-02-21T12:08:22.468Z,66.0
2018-02-21T12:09:24.135Z,64.6
2018-02-21T12:10:25.800Z,65.9
2018-02-21T12:11:27.492Z,66.6
2018-02-21T12:12:29.692Z,66.2
2018-02-21T12:13:31.720Z,64.2
2018-02-21T12:14:33.380Z,65.4
2018-02-21T12:15:35.039Z,66.0
2018-02-21T12:16:36.702Z,65.3
2018-02-21T12:17:38.383Z,64.7
2018-02-21T12:18:40.044Z,65.3
2018-02-21T12:19:41.723Z,66.8
2018-02-21T12:20:43.665Z,67.3
2018-02-21T12:21:45.305Z,66.8
2018-02-21T12:22:46.961Z,66.8
2018-02-21T12:23:48.629Z,66.3
2018-02-21T12:24:50.287Z,64.3
2018-02-21T12:25:51.961Z,65.1
2018-02-21T12:26:53.624Z,66.5
2018-02-21T12:27:55.293Z,65.9
2018-02-21T12:28:56.956Z,66.2
2018-02-21T12:29:58.618Z,66.3
2018-02-21T12:31:00.276Z,65.6
2018-02-21T12:32:01.943Z,65.0
2018-02-21T12:33:03.613Z,64.3
2018-02-21T12:34:05.281Z,63.8
2018-02-21T12:35:06.976Z,63.5
2018-02-21T12:36:08.635Z,64.7
2018-02-21T12:37:10.297Z,66.1
2018-02-21T12:38:11.958Z,65.2
2018-02-21T12:39:13.617Z,65.6
2018-02-21T12:40:15.285Z,66.3
2018-02-21T12:41:17.178Z,66.7
2018-02-21T12:42:18.838Z,66.9
2018-02-21T12:43:20.499Z,66.9
2018-02-21T12:44:22.159Z,65.6
2018-02-21T12:45:24.003Z,66.6
2018-02-21T12:46:26.310Z,67.6
2018-02-21T12:47:28.007Z,67.4
2018-02-21T12:48:29.691Z,68.3
2018-02-21T12:49:31.444Z,68.9
2018-02-21T12:50:33.200Z,69.0
2018-02-21T12:51:34.876Z,68.9
2018-02-21T12:52:36.542Z,68.6
2018-02-21T12:53:38.221Z,68.1
2018-02-21T12:54:39.893Z,67.2
2018-02-21T12:55:41.558Z,65.4
2018-02-21T12:56:43.217Z,64.6
2018-02-21T12:57:45.035Z,65.5
2018-02-21T12:58:46.698Z,63.7
2018-02-21T12:59:48.364Z,63.3
2018-02-21T13:00:50.037Z,63.4
2018-02-21T13:01:51.704Z,62.7
2018-02-21T13:02:53.379Z,61.4
2018-02-21T13:03:55.201Z,60.5
2018-02-21T13:04:56.859Z,59.3
2018-02-21T13:05:58.581Z,59.9
2018-02-21T13:07:00.234Z,60.9
2018-02-21T13:08:01.926Z,61.0
2018-02-21T13:09:03.568Z,60.8
2018-02-21T13:10:05.227Z,60.0
2018-02-21T13:11:06.892Z,59.9
2018-02-21T13:12:08.551Z,59.0
2018-02-21T13:13:10.216Z,60.0
2018-02-21T13:14:11.938Z,59.9
2018-02-21T13:15:13.602Z,61.4
2018-02-21T13:16:15.263Z,62.2
2018-02-21T13:17:16.945Z,63.2
2018-02-21T13:18:18.662Z,63.1
2018-02-21T13:19:20.281Z,63.4
2018-02-21T13:20:21.957Z,63.5
2018-02-21T13:21:23.615Z,63.5
2018-02-21T13:22:25.277Z,63.3
2018-02-21T13:23:27.007Z,63.8
2018-02-21T13:24:28.676Z,61.6
2018-02-21T13:25:30.344Z,59.9
2018-02-21T13:26:32.012Z,59.3
2018-02-21T13:27:33.677Z,59.9
2018-02-21T13:28:35.341Z,61.2
2018-02-21T13:29:37.009Z,63.1
2018-02-21T13:30:38.670Z,63.1
2018-02-21T13:31:40.368Z,63.7
2018-02-21T13:32:42.037Z,64.0
2018-02-21T13:33:43.690Z,62.3
2018-02-21T13:34:45.346Z,62.7
2018-02-21T13:35:47.015Z,62.6
2018-02-21T13:36:48.713Z,63.2
2018-02-21T13:37:50.381Z,62.3
2018-02-21T13:38:52.053Z,61.9
2018-02-21T13:39:53.716Z,61.5
2018-02-21T13:40:55.411Z,61.1
2018-02-21T13:41:57.064Z,61.5
2018-02-21T13:42:58.758Z,62.3
2018-02-21T13:44:00.637Z,63.9
2018-02-21T13:45:02.303Z,65.8
2018-02-21T13:46:03.971Z,65.9
2018-02-21T13:47:05.636Z,66.4
2018-02-21T13:48:07.298Z,64.5
2018-02-21T13:49:08.963Z,66.3
2018-02-21T13:50:10.630Z,65.2
2018-02-21T13:51:12.299Z,65.5
2018-02-21T13:52:13.967Z,65.6
2018-02-21T13:53:15.627Z,66.4